createdAt,value
2023-05-04T00:00:07.948Z,5.98
2023-05-04T00:02:34.662Z,6.02
2023-05-04T00:05:01.547Z,6.07
2023-05-04T00:07:28.162Z,6.11
2023-05-04T00:09:54.613Z,6.03
2023-05-04T00:12:21.261Z,5.92
2023-05-04T00:14:47.877Z,5.97
2023-05-04T00:17:14.399Z,6.05
2023-05-04T00:19:42.122Z,6.19
2023-05-04T00:22:09.066Z,5.95
2023-05-04T00:24:35.675Z,5.81
2023-05-04T00:27:02.474Z,5.80
2023-05-04T00:29:29.944Z,5.64
2023-05-04T00:31:57.003Z,5.87
2023-05-04T00:34:23.879Z,5.84
2023-05-04T00:36:50.422Z,5.75
2023-05-04T00:39:17.297Z,5.64
2023-05-04T00:41:45.558Z,5.68
2023-05-04T00:44:12.075Z,5.84
2023-05-04T00:46:38.855Z,5.89
2023-05-04T00:49:07.548Z,5.54
2023-05-04T00:51:35.287Z,5.56
2023-05-04T00:54:01.941Z,5.43
2023-05-04T00:56:29.572Z,5.49
2023-05-04T00:58:57.924Z,5.57
2023-05-04T01:01:25.321Z,5.60
2023-05-04T01:03:53.562Z,5.59
2023-05-04T01:06:51.487Z,5.51
2023-05-04T01:09:29.879Z,5.43
2023-05-04T01:12:31.799Z,5.40
2023-05-04T01:15:00.418Z,5.58
2023-05-04T01:17:28.814Z,5.60
2023-05-04T01:19:55.315Z,5.69
2023-05-04T01:22:22.688Z,5.69
2023-05-04T01:24:50.598Z,5.54
2023-05-04T01:27:26.235Z,5.30
2023-05-04T01:30:02.246Z,5.19
2023-05-04T01:32:31.269Z,5.06
2023-05-04T01:34:59.109Z,5.09
2023-05-04T01:37:26.047Z,5.21
2023-05-04T01:39:52.592Z,5.27
2023-05-04T01:42:19.132Z,5.27
2023-05-04T01:44:45.627Z,5.27
2023-05-04T01:47:12.129Z,5.09
2023-05-04T01:49:38.609Z,5.07
2023-05-04T01:52:05.249Z,5.11
2023-05-04T01:54:31.813Z,5.33
2023-05-04T01:56:58.334Z,5.12
2023-05-04T01:59:24.852Z,5.04
2023-05-04T02:01:51.404Z,5.12
2023-05-04T02:04:17.930Z,4.91
2023-05-04T02:06:44.387Z,4.84
2023-05-04T02:09:11.332Z,4.85
2023-05-04T02:11:38.495Z,4.88
2023-05-04T02:14:05.063Z,4.91
2023-05-04T02:16:31.847Z,4.99
2023-05-04T02:18:58.348Z,5.10
2023-05-04T02:21:24.803Z,5.17
2023-05-04T02:23:51.779Z,5.31
2023-05-04T02:26:18.309Z,5.33
2023-05-04T02:28:44.759Z,5.32
2023-05-04T02:31:11.445Z,5.10
2023-05-04T02:33:37.957Z,4.91
2023-05-04T02:36:04.797Z,4.88
2023-05-04T02:38:31.328Z,4.78
2023-05-04T02:40:58.435Z,4.84
2023-05-04T02:43:25.033Z,4.87
2023-05-04T02:45:52.648Z,4.63
2023-05-04T02:48:19.996Z,4.62
2023-05-04T02:50:46.494Z,4.50
2023-05-04T02:53:12.989Z,4.55
2023-05-04T02:55:39.486Z,4.72
2023-05-04T02:58:05.957Z,4.72
2023-05-04T03:00:32.444Z,4.66
2023-05-04T03:02:59.010Z,4.77
2023-05-04T03:05:25.599Z,4.68
2023-05-04T03:07:52.375Z,4.61
2023-05-04T03:10:19.051Z,4.70
2023-05-04T03:12:45.519Z,4.80
2023-05-04T03:15:12.298Z,4.85
2023-05-04T03:17:39.074Z,4.82
2023-05-04T03:20:07.092Z,4.77
2023-05-04T03:22:34.136Z,4.87
2023-05-04T03:25:01.125Z,4.84
2023-05-04T03:27:27.595Z,4.78
2023-05-04T03:29:54.059Z,4.94
2023-05-04T03:32:20.732Z,4.85
2023-05-04T03:34:47.296Z,4.77
2023-05-04T03:37:16.016Z,4.74
2023-05-04T03:39:42.532Z,4.67
2023-05-04T03:42:09.430Z,4.64
2023-05-04T03:44:35.918Z,4.71
2023-05-04T03:47:02.390Z,5.06
2023-05-04T03:49:29.499Z,4.96
2023-05-04T03:51:55.964Z,4.89
2023-05-04T03:54:22.438Z,4.92
2023-05-04T03:56:49.093Z,4.83
2023-05-04T03:59:17.458Z,4.87
2023-05-04T04:01:46.124Z,4.93
2023-05-04T04:04:12.651Z,4.90
2023-05-04T04:06:40.519Z,4.84
2023-05-04T04:09:08.458Z,4.93
2023-05-04T04:11:35.881Z,4.99
2023-05-04T04:14:02.551Z,4.97
2023-05-04T04:16:29.081Z,5.02
2023-05-04T04:18:55.693Z,4.97
2023-05-04T04:21:22.249Z,4.94
2023-05-04T04:23:48.680Z,4.83
2023-05-04T04:26:15.689Z,4.95
2023-05-04T04:28:42.185Z,4.91
2023-05-04T04:31:09.335Z,4.94
2023-05-04T04:33:36.288Z,4.78
2023-05-04T04:36:02.780Z,4.86
2023-05-04T04:38:29.566Z,4.82
2023-05-04T04:40:56.085Z,4.86
2023-05-04T04:43:22.516Z,4.84
2023-05-04T04:45:49.204Z,4.99
2023-05-04T04:48:15.714Z,5.21
2023-05-04T04:50:42.231Z,5.27
2023-05-04T04:53:11.031Z,5.05
2023-05-04T04:55:37.539Z,5.14
2023-05-04T04:58:04.011Z,5.06
2023-05-04T05:00:30.465Z,5.19
2023-05-04T05:02:56.975Z,5.22
2023-05-04T05:05:23.534Z,5.30
2023-05-04T05:07:50.063Z,5.42
2023-05-04T05:10:16.885Z,5.59
2023-05-04T05:12:43.385Z,5.65
2023-05-04T05:15:10.414Z,5.93
2023-05-04T05:17:37.656Z,6.05
2023-05-04T05:20:11.848Z,6.48
2023-05-04T05:22:39.365Z,6.90
2023-05-04T05:25:06.996Z,8.27
2023-05-04T05:27:37.166Z,9.67
2023-05-04T05:30:05.695Z,10.47
2023-05-04T05:32:32.870Z,10.98
2023-05-04T05:34:59.361Z,11.54
2023-05-04T05:37:25.886Z,12.50
2023-05-04T05:39:52.329Z,12.57
2023-05-04T05:42:19.336Z,12.54
2023-05-04T05:44:45.905Z,12.28
2023-05-04T05:47:12.447Z,12.42
2023-05-04T05:49:38.956Z,12.84
2023-05-04T05:52:05.435Z,13.12
2023-05-04T05:54:34.694Z,13.01
2023-05-04T05:57:01.779Z,13.41
2023-05-04T05:59:28.318Z,14.85
2023-05-04T06:01:54.848Z,14.81
2023-05-04T06:04:31.327Z,15.06
2023-05-04T06:06:58.953Z,15.82
2023-05-04T06:09:27.453Z,14.98
2023-05-04T06:11:58.769Z,15.89
2023-05-04T06:14:28.509Z,16.27
2023-05-04T06:16:58.100Z,17.18
2023-05-04T06:19:26.313Z,17.66
2023-05-04T06:21:56.622Z,18.15
2023-05-04T06:24:28.385Z,17.99
2023-05-04T06:26:55.555Z,16.77
2023-05-04T06:29:24.296Z,17.56
2023-05-04T06:32:02.874Z,17.73
2023-05-04T06:34:29.636Z,18.41
2023-05-04T06:36:56.624Z,19.07
2023-05-04T06:39:23.157Z,19.48
2023-05-04T06:41:49.625Z,19.46
2023-05-04T06:44:18.767Z,19.84
2023-05-04T06:46:50.605Z,20.12
2023-05-04T06:49:18.027Z,20.53
2023-05-04T06:51:44.734Z,19.88
2023-05-04T06:54:11.812Z,19.33
2023-05-04T06:56:39.576Z,18.60
2023-05-04T06:59:06.503Z,19.30
2023-05-04T07:01:33.080Z,19.90
2023-05-04T07:03:59.653Z,19.90
2023-05-04T07:06:29.565Z,22.10
2023-05-04T07:08:56.419Z,22.02
2023-05-04T07:11:23.462Z,22.34
2023-05-04T07:13:49.967Z,22.45
2023-05-04T07:16:16.612Z,22.19
2023-05-04T07:18:43.119Z,22.77
2023-05-04T07:23:43.112Z,22.32
2023-05-04T07:26:20.643Z,21.59
2023-05-04T07:28:52.564Z,22.02
2023-05-04T07:31:19.483Z,20.88
2023-05-04T07:33:46.136Z,21.44
2023-05-04T07:36:12.808Z,21.18
2023-05-04T07:38:39.305Z,21.81
2023-05-04T07:41:07.146Z,22.06
2023-05-04T07:43:33.622Z,22.93
2023-05-04T07:46:00.173Z,22.30
2023-05-04T07:48:26.895Z,22.08
2023-05-04T07:50:53.877Z,21.67
2023-05-04T07:53:25.445Z,20.98
2023-05-04T07:55:54.240Z,21.19
2023-05-04T07:58:20.868Z,20.65
2023-05-04T08:00:47.380Z,21.19
2023-05-04T08:03:13.953Z,21.72
2023-05-04T08:05:41.064Z,21.37
2023-05-04T08:08:08.843Z,21.79
2023-05-04T08:10:38.693Z,21.28
2023-05-04T08:13:05.823Z,21.63
2023-05-04T08:15:32.531Z,21.73
2023-05-04T08:17:59.290Z,22.63
2023-05-04T08:20:25.915Z,21.64
2023-05-04T08:22:52.560Z,19.53
2023-05-04T08:25:19.247Z,19.52
2023-05-04T08:27:45.861Z,19.25
2023-05-04T08:30:12.758Z,19.35
2023-05-04T08:32:39.467Z,19.85
2023-05-04T08:35:06.736Z,19.27
2023-05-04T08:37:33.420Z,19.28
2023-05-04T08:39:59.956Z,19.23
2023-05-04T08:42:31.126Z,19.41
2023-05-04T08:44:58.596Z,19.32
2023-05-04T08:47:26.746Z,19.31
2023-05-04T08:49:56.656Z,19.76
2023-05-04T08:52:24.623Z,19.95
2023-05-04T08:54:55.688Z,20.12
2023-05-04T08:57:26.042Z,19.76
2023-05-04T08:59:54.521Z,19.79
2023-05-04T09:02:23.479Z,20.46
2023-05-04T09:04:51.728Z,20.15
2023-05-04T09:07:22.386Z,20.23
2023-05-04T09:09:51.582Z,20.40
2023-05-04T09:12:19.057Z,20.25
2023-05-04T09:14:48.417Z,20.81
2023-05-04T09:17:29.520Z,20.33
2023-05-04T09:20:03.281Z,19.85
2023-05-04T09:22:30.728Z,19.72
2023-05-04T09:25:06.905Z,19.97
2023-05-04T09:27:33.508Z,20.59
2023-05-04T09:29:59.989Z,20.48
2023-05-04T09:32:26.583Z,20.12
2023-05-04T09:34:54.138Z,20.47
2023-05-04T09:37:22.071Z,20.71
2023-05-04T09:39:56.360Z,20.98
2023-05-04T09:42:24.021Z,20.45
2023-05-04T09:45:05.127Z,20.31
2023-05-04T09:47:36.731Z,20.67
2023-05-04T09:50:20.111Z,20.68
2023-05-04T09:52:48.037Z,21.03
2023-05-04T09:55:19.535Z,20.89
2023-05-04T09:57:47.616Z,20.65
2023-05-04T10:00:17.202Z,21.16
2023-05-04T10:02:45.407Z,21.62
2023-05-04T10:05:18.086Z,21.64
2023-05-04T10:07:45.367Z,21.86
2023-05-04T10:10:13.671Z,22.19
2023-05-04T10:12:40.824Z,22.47
2023-05-04T10:15:12.030Z,22.21
2023-05-04T10:18:03.832Z,22.18
2023-05-04T10:20:52.168Z,21.80
2023-05-04T10:23:44.181Z,21.83
2023-05-04T10:26:47.278Z,22.34
2023-05-04T10:29:36.064Z,21.78
2023-05-04T10:32:03.351Z,22.03
2023-05-04T10:34:35.088Z,22.31
2023-05-04T10:37:03.197Z,22.55
2023-05-04T10:39:31.860Z,22.62
2023-05-04T10:42:08.150Z,22.68
2023-05-04T10:44:40.076Z,23.15
2023-05-04T10:47:08.075Z,22.66
2023-05-04T10:49:35.847Z,23.14
2023-05-04T10:52:16.008Z,23.50
2023-05-04T10:54:42.655Z,23.01
2023-05-04T10:57:14.466Z,22.73
2023-05-04T10:59:41.712Z,22.93
2023-05-04T11:02:08.655Z,22.65
2023-05-04T11:04:35.786Z,22.91
2023-05-04T11:07:06.876Z,23.17
2023-05-04T11:09:43.914Z,23.00
2023-05-04T11:12:15.667Z,23.36
2023-05-04T11:14:46.925Z,22.97
2023-05-04T11:19:53.256Z,24.59
2023-05-04T11:22:20.369Z,24.46
2023-05-04T11:24:52.861Z,24.84
2023-05-04T11:27:29.688Z,25.29
2023-05-04T11:30:01.406Z,26.08
2023-05-04T11:32:38.219Z,26.07
2023-05-04T11:35:08.925Z,25.82
2023-05-04T11:37:44.534Z,26.30
2023-05-04T11:40:15.349Z,26.02
2023-05-04T11:42:43.628Z,27.65
2023-05-04T11:45:17.933Z,27.81
2023-05-04T11:47:48.806Z,28.03
2023-05-04T11:50:20.808Z,27.59
2023-05-04T11:52:51.741Z,28.40
2023-05-04T11:55:30.568Z,28.06
2023-05-04T11:58:01.439Z,29.78
2023-05-04T12:00:44.961Z,29.73
2023-05-04T12:03:14.382Z,29.17
2023-05-04T12:05:49.680Z,27.88
2023-05-04T12:08:31.591Z,28.30
2023-05-04T12:11:21.483Z,27.85
2023-05-04T12:13:49.422Z,27.65
2023-05-04T12:16:20.812Z,28.00
2023-05-04T12:18:48.131Z,28.32
2023-05-04T12:21:18.429Z,28.75
2023-05-04T12:23:45.843Z,28.86
2023-05-04T12:26:13.318Z,28.81
2023-05-04T12:28:41.681Z,28.79
2023-05-04T12:31:08.752Z,29.09
2023-05-04T12:33:36.270Z,30.13
2023-05-04T12:36:04.554Z,29.40
2023-05-04T12:38:31.527Z,28.74
2023-05-04T12:41:00.301Z,29.36
2023-05-04T12:43:26.890Z,28.72
2023-05-04T12:45:53.883Z,28.52
2023-05-04T12:48:21.055Z,29.29
2023-05-04T12:50:49.881Z,28.72
2023-05-04T12:53:17.450Z,29.04
2023-05-04T12:55:44.155Z,29.50
2023-05-04T12:58:10.929Z,29.15
2023-05-04T13:00:38.797Z,28.55
2023-05-04T13:03:06.016Z,29.33
2023-05-04T13:05:32.575Z,28.09
2023-05-04T13:07:59.198Z,28.11
2023-05-04T13:10:25.714Z,27.60
2023-05-04T13:12:52.376Z,27.16
2023-05-04T13:15:19.081Z,26.66
2023-05-04T13:17:45.684Z,27.78
2023-05-04T13:20:13.100Z,28.15
2023-05-04T13:22:40.055Z,28.02
2023-05-04T13:25:07.702Z,27.39
2023-05-04T13:27:34.649Z,28.20
2023-05-04T13:30:03.856Z,27.01
2023-05-04T13:32:31.373Z,27.80
2023-05-04T13:34:57.994Z,27.31
2023-05-04T13:37:24.613Z,26.88
2023-05-04T13:39:51.193Z,26.26
2023-05-04T13:42:18.034Z,25.19
2023-05-04T13:44:45.449Z,24.61
2023-05-04T13:47:12.692Z,24.53
2023-05-04T13:49:39.797Z,24.70
2023-05-04T13:52:06.288Z,24.40
2023-05-04T13:54:33.319Z,24.12
2023-05-04T13:57:00.573Z,24.71
2023-05-04T13:59:27.157Z,24.63
2023-05-04T14:01:53.643Z,24.71
2023-05-04T14:04:20.119Z,24.80
2023-05-04T14:06:50.762Z,24.59
2023-05-04T14:09:18.385Z,24.36
2023-05-04T14:11:46.383Z,24.24
2023-05-04T14:14:13.073Z,24.52
2023-05-04T14:16:39.882Z,24.45
2023-05-04T14:19:06.514Z,24.36
2023-05-04T14:21:32.986Z,24.62
2023-05-04T14:23:59.457Z,24.34
2023-05-04T14:26:26.211Z,24.38
2023-05-04T14:28:52.796Z,24.24
2023-05-04T14:31:19.342Z,24.19
2023-05-04T14:33:45.830Z,24.10
2023-05-04T14:36:12.463Z,23.84
2023-05-04T14:38:38.955Z,23.75
2023-05-04T14:41:07.163Z,23.47
2023-05-04T14:43:34.110Z,23.60
2023-05-04T14:46:01.406Z,23.63
2023-05-04T14:48:27.977Z,23.63
2023-05-04T14:50:55.108Z,23.69
2023-05-04T14:53:21.853Z,23.78
2023-05-04T14:55:48.561Z,23.79
2023-05-04T14:58:15.871Z,23.43
2023-05-04T15:00:42.434Z,23.44
2023-05-04T15:03:09.320Z,23.44
2023-05-04T15:05:35.941Z,23.55
2023-05-04T15:08:02.839Z,23.81
2023-05-04T15:10:29.423Z,23.47
2023-05-04T15:12:57.325Z,23.29
2023-05-04T15:15:23.808Z,23.15
2023-05-04T15:17:50.548Z,22.66
2023-05-04T15:20:18.000Z,22.60
2023-05-04T15:22:53.890Z,22.56
2023-05-04T15:25:23.700Z,22.67
2023-05-04T15:27:50.233Z,22.65
2023-05-04T15:30:17.281Z,22.47
2023-05-04T15:32:43.799Z,22.38
2023-05-04T15:35:10.432Z,22.35
2023-05-04T15:37:36.889Z,22.55
2023-05-04T15:40:04.702Z,22.59
2023-05-04T15:42:31.638Z,22.49
2023-05-04T15:44:58.172Z,22.50
2023-05-04T15:47:24.659Z,22.14
2023-05-04T15:49:52.401Z,21.99
2023-05-04T15:52:18.875Z,22.11
2023-05-04T15:54:47.259Z,22.24
2023-05-04T15:57:14.931Z,22.45
2023-05-04T15:59:41.585Z,22.50
2023-05-04T16:02:08.178Z,22.57
2023-05-04T16:04:34.639Z,22.57
2023-05-04T16:07:01.364Z,22.38
2023-05-04T16:09:30.012Z,22.34
2023-05-04T16:11:56.594Z,22.17
2023-05-04T16:14:23.128Z,22.04
2023-05-04T16:16:49.774Z,22.05
2023-05-04T16:32:14.704Z,22.02
2023-05-04T16:42:52.807Z,21.43
2023-05-04T16:45:47.573Z,21.47
2023-05-04T16:49:07.492Z,21.50
2023-05-04T16:51:42.163Z,21.60
2023-05-04T16:54:27.500Z,21.58
2023-05-04T16:56:56.009Z,21.49
2023-05-04T16:59:53.764Z,21.54
2023-05-04T17:05:56.666Z,21.35
2023-05-04T17:08:32.102Z,21.25
2023-05-04T17:11:25.326Z,21.21
2023-05-04T17:25:14.726Z,20.62
2023-05-04T17:27:49.077Z,20.46
2023-05-04T17:30:19.038Z,20.49
2023-05-04T17:33:01.756Z,20.40
2023-05-04T17:35:29.572Z,20.28
2023-05-04T17:38:03.348Z,20.33
2023-05-04T17:40:30.366Z,20.19
2023-05-04T17:43:00.300Z,19.95
2023-05-04T17:45:27.270Z,19.82
2023-05-04T17:47:54.667Z,19.83
2023-05-04T17:50:25.380Z,19.70
2023-05-04T17:52:53.342Z,19.57
2023-05-04T17:55:19.936Z,19.61
2023-05-04T17:57:46.653Z,19.36
2023-05-04T18:00:13.764Z,19.14
2023-05-04T18:02:40.286Z,19.16
2023-05-04T18:05:07.412Z,18.97
2023-05-04T18:07:33.877Z,19.05
2023-05-04T18:10:01.982Z,18.95
2023-05-04T18:12:28.551Z,18.92
2023-05-04T18:14:55.193Z,18.65
2023-05-04T18:17:21.640Z,18.61
2023-05-04T18:19:48.105Z,18.20
2023-05-04T18:22:14.519Z,18.00
2023-05-04T18:24:41.269Z,17.68
2023-05-04T18:27:07.728Z,17.77
2023-05-04T18:29:34.199Z,17.47
2023-05-04T18:32:01.187Z,17.20
2023-05-04T18:34:27.739Z,17.47
2023-05-04T18:36:54.393Z,17.25
2023-05-04T18:39:20.859Z,17.08
2023-05-04T18:41:47.364Z,16.91
2023-05-04T18:44:16.831Z,16.96
2023-05-04T18:46:43.352Z,16.87
2023-05-04T18:49:09.805Z,16.84
2023-05-04T18:51:36.242Z,16.76
2023-05-04T18:54:02.840Z,16.76
2023-05-04T18:56:29.298Z,16.77
2023-05-04T18:58:55.774Z,16.70
2023-05-04T19:01:22.462Z,16.74
2023-05-04T19:03:49.005Z,16.78
2023-05-04T19:06:15.485Z,16.46
2023-05-04T19:08:42.019Z,16.06
2023-05-04T19:11:08.554Z,15.88
2023-05-04T19:13:35.119Z,15.68
2023-05-04T19:16:01.609Z,15.70
2023-05-04T19:18:28.249Z,15.57
2023-05-04T19:20:54.790Z,15.44
2023-05-04T19:23:21.333Z,15.35
2023-05-04T19:25:47.808Z,15.41
2023-05-04T19:28:14.313Z,15.35
2023-05-04T19:30:41.628Z,15.19
2023-05-04T19:33:08.394Z,15.28
2023-05-04T19:35:35.682Z,15.25
2023-05-04T19:38:02.373Z,15.39
2023-05-04T19:40:28.998Z,15.09
2023-05-04T19:42:57.913Z,14.82
2023-05-04T19:45:24.424Z,14.78
2023-05-04T19:47:52.366Z,14.62
2023-05-04T19:50:19.240Z,14.71
2023-05-04T19:52:45.686Z,14.81
2023-05-04T19:55:38.874Z,14.84
2023-05-04T19:58:05.953Z,14.72
2023-05-04T20:00:32.484Z,14.66
2023-05-04T20:02:59.024Z,14.58
2023-05-04T20:05:25.673Z,14.44
2023-05-04T20:07:52.278Z,14.47
2023-05-04T20:10:18.770Z,14.72
2023-05-04T20:12:45.272Z,14.71
2023-05-04T20:15:12.276Z,14.47
2023-05-04T20:17:38.797Z,14.50
2023-05-04T20:20:06.188Z,14.46
2023-05-04T20:22:32.980Z,14.45
2023-05-04T20:24:59.560Z,14.35
2023-05-04T20:27:26.049Z,14.18
2023-05-04T20:29:52.534Z,14.17
2023-05-04T20:32:19.180Z,14.25
2023-05-04T20:34:46.309Z,14.27
2023-05-04T20:37:12.870Z,14.30
2023-05-04T20:39:39.343Z,14.26
2023-05-04T20:42:05.884Z,14.15
2023-05-04T20:44:33.249Z,14.29
2023-05-04T20:46:59.726Z,14.27
2023-05-04T20:49:26.229Z,14.28
2023-05-04T20:51:52.690Z,14.18
2023-05-04T20:54:19.199Z,14.22
2023-05-04T20:56:45.765Z,14.04
2023-05-04T20:59:12.627Z,13.83
2023-05-04T21:01:39.158Z,13.62
2023-05-04T21:04:05.682Z,13.49
2023-05-04T21:06:32.130Z,13.57
2023-05-04T21:08:58.791Z,13.69
2023-05-04T21:11:25.341Z,13.71
2023-05-04T21:13:51.955Z,13.67
2023-05-04T21:16:18.553Z,13.59
2023-05-04T21:18:45.361Z,13.31
2023-05-04T21:21:11.990Z,13.44
2023-05-04T21:23:38.564Z,13.45
2023-05-04T21:26:05.252Z,13.57
2023-05-04T21:28:32.094Z,13.58
2023-05-04T21:30:59.098Z,13.48
2023-05-04T21:33:25.918Z,13.46
2023-05-04T21:35:52.470Z,13.26
2023-05-04T21:38:21.691Z,13.21
2023-05-04T21:40:48.750Z,13.40
2023-05-04T21:43:15.492Z,13.26
2023-05-04T21:45:42.151Z,13.10
2023-05-04T21:48:08.754Z,13.01
2023-05-04T21:50:35.382Z,13.12
2023-05-04T21:53:01.992Z,13.38
2023-05-04T21:55:29.170Z,13.26
2023-05-04T21:57:56.119Z,13.01
2023-05-04T22:00:23.982Z,12.96
2023-05-04T22:02:53.643Z,12.97
2023-05-04T22:05:22.259Z,12.80
2023-05-04T22:07:49.645Z,12.76
2023-05-04T22:10:16.565Z,12.66
2023-05-04T22:12:43.191Z,12.72
2023-05-04T22:15:10.486Z,12.74
2023-05-04T22:17:37.012Z,12.71
2023-05-04T22:20:03.754Z,12.68
2023-05-04T22:22:30.331Z,12.54
2023-05-04T22:24:57.129Z,12.59
2023-05-04T22:27:23.771Z,12.62
2023-05-04T22:29:50.205Z,12.73
2023-05-04T22:32:16.637Z,12.74
2023-05-04T22:34:43.114Z,12.65
2023-05-04T22:37:09.604Z,12.52
2023-05-04T22:39:36.153Z,12.56
2023-05-04T22:42:21.596Z,12.42
2023-05-04T22:44:48.333Z,12.29
2023-05-04T22:47:17.415Z,12.25
2023-05-04T22:49:44.073Z,12.23
2023-05-04T22:52:10.536Z,12.38
2023-05-04T22:54:37.112Z,12.33
2023-05-04T22:57:06.998Z,12.39
2023-05-04T22:59:34.328Z,12.31
2023-05-04T23:02:01.108Z,12.23
2023-05-04T23:04:27.917Z,12.12
2023-05-04T23:06:58.492Z,12.14
2023-05-04T23:09:25.013Z,12.06
2023-05-04T23:11:54.593Z,12.03
2023-05-04T23:14:23.753Z,12.15
2023-05-04T23:16:50.484Z,12.15
2023-05-04T23:19:17.012Z,11.98
2023-05-04T23:21:44.306Z,11.87
2023-05-04T23:24:10.786Z,11.77
2023-05-04T23:26:37.459Z,11.66
2023-05-04T23:29:06.677Z,11.73
2023-05-04T23:31:33.206Z,11.65
2023-05-04T23:33:59.703Z,11.48
2023-05-04T23:36:27.586Z,11.38
2023-05-04T23:38:54.125Z,11.32
2023-05-04T23:41:20.876Z,11.39
2023-05-04T23:43:47.393Z,11.37
2023-05-04T23:46:14.012Z,11.51
2023-05-04T23:48:40.792Z,11.34
2023-05-04T23:51:08.453Z,11.27
2023-05-04T23:53:38.067Z,11.16
2023-05-04T23:56:07.715Z,11.40
2023-05-04T23:58:36.006Z,11.34
